sensor_id;sensor_type;location;lat;lon;timestamp;P1;durP1;ratioP1;P2;durP2;ratioP2
29246;SDS011;16272;48.188;9.964;2024-03-22T00:01:08;37.07;;;19.20;;
29246;SDS011;16272;48.188;9.964;2024-03-22T00:03:33;39.40;;;19.77;;
29246;SDS011;16272;48.188;9.964;2024-03-22T00:05:59;42.60;;;20.80;;
29246;SDS011;16272;48.188;9.964;2024-03-22T00:08:24;41.60;;;20.17;;
29246;SDS011;16272;48.188;9.964;2024-03-22T00:10:49;41.53;;;19.97;;
29246;SDS011;16272;48.188;9.964;2024-03-22T00:13:15;41.97;;;20.77;;
29246;SDS011;16272;48.188;9.964;2024-03-22T00:15:40;41.60;;;20.00;;
29246;SDS011;16272;48.188;9.964;2024-03-22T00:18:07;40.90;;;19.70;;
29246;SDS011;16272;48.188;9.964;2024-03-22T00:20:32;41.27;;;20.13;;
29246;SDS011;16272;48.188;9.964;2024-03-22T00:22:58;40.03;;;20.40;;
29246;SDS011;16272;48.188;9.964;2024-03-22T00:25:23;37.47;;;19.03;;
29246;SDS011;16272;48.188;9.964;2024-03-22T00:27:48;38.95;;;18.73;;
29246;SDS011;16272;48.188;9.964;2024-03-22T00:30:13;37.67;;;18.67;;
29246;SDS011;16272;48.188;9.964;2024-03-22T00:32:40;35.53;;;18.10;;
29246;SDS011;16272;48.188;9.964;2024-03-22T00:35:05;35.30;;;17.97;;
29246;SDS011;16272;48.188;9.964;2024-03-22T00:37:31;36.00;;;18.63;;
29246;SDS011;16272;48.188;9.964;2024-03-22T00:39:56;35.87;;;18.13;;
29246;SDS011;16272;48.188;9.964;2024-03-22T00:42:22;36.13;;;18.13;;
29246;SDS011;16272;48.188;9.964;2024-03-22T00:44:47;35.03;;;17.40;;
29246;SDS011;16272;48.188;9.964;2024-03-22T00:47:12;36.67;;;18.63;;
29246;SDS011;16272;48.188;9.964;2024-03-22T00:49:37;35.13;;;18.63;;
29246;SDS011;16272;48.188;9.964;2024-03-22T00:52:03;36.27;;;18.60;;
29246;SDS011;16272;48.188;9.964;2024-03-22T00:54:28;36.00;;;17.93;;
29246;SDS011;16272;48.188;9.964;2024-03-22T00:56:53;37.13;;;18.25;;
29246;SDS011;16272;48.188;9.964;2024-03-22T00:59:19;36.03;;;18.33;;
29246;SDS011;16272;48.188;9.964;2024-03-22T01:01:44;34.97;;;18.10;;
29246;SDS011;16272;48.188;9.964;2024-03-22T01:04:09;34.80;;;17.90;;
29246;SDS011;16272;48.188;9.964;2024-03-22T01:06:35;35.03;;;17.30;;
29246;SDS011;16272;48.188;9.964;2024-03-22T01:09:00;35.27;;;17.60;;
29246;SDS011;16272;48.188;9.964;2024-03-22T01:11:25;34.40;;;16.90;;
29246;SDS011;16272;48.188;9.964;2024-03-22T01:13:50;36.42;;;17.17;;
29246;SDS011;16272;48.188;9.964;2024-03-22T01:16:16;33.27;;;16.57;;
29246;SDS011;16272;48.188;9.964;2024-03-22T01:18:41;32.33;;;16.17;;
29246;SDS011;16272;48.188;9.964;2024-03-22T01:21:06;29.57;;;14.93;;
29246;SDS011;16272;48.188;9.964;2024-03-22T01:23:32;31.20;;;15.97;;
29246;SDS011;16272;48.188;9.964;2024-03-22T01:25:57;31.37;;;16.53;;
29246;SDS011;16272;48.188;9.964;2024-03-22T01:28:22;34.40;;;17.20;;
29246;SDS011;16272;48.188;9.964;2024-03-22T01:30:48;28.52;;;15.52;;
29246;SDS011;16272;48.188;9.964;2024-03-22T01:33:13;29.27;;;15.10;;
29246;SDS011;16272;48.188;9.964;2024-03-22T01:35:38;30.73;;;14.93;;
29246;SDS011;16272;48.188;9.964;2024-03-22T01:38:04;29.77;;;15.63;;
29246;SDS011;16272;48.188;9.964;2024-03-22T01:40:29;27.50;;;15.03;;
29246;SDS011;16272;48.188;9.964;2024-03-22T01:42:57;26.60;;;14.10;;
29246;SDS011;16272;48.188;9.964;2024-03-22T01:45:24;29.02;;;15.13;;
29246;SDS011;16272;48.188;9.964;2024-03-22T01:47:50;30.20;;;14.98;;
29246;SDS011;16272;48.188;9.964;2024-03-22T01:50:16;30.70;;;14.98;;
29246;SDS011;16272;48.188;9.964;2024-03-22T01:52:41;28.47;;;14.70;;
29246;SDS011;16272;48.188;9.964;2024-03-22T01:55:07;27.08;;;14.20;;
29246;SDS011;16272;48.188;9.964;2024-03-22T01:57:33;30.23;;;15.00;;
29246;SDS011;16272;48.188;9.964;2024-03-22T01:59:58;28.70;;;14.35;;
29246;SDS011;16272;48.188;9.964;2024-03-22T02:02:24;25.33;;;13.48;;
29246;SDS011;16272;48.188;9.964;2024-03-22T02:04:53;24.23;;;12.43;;
29246;SDS011;16272;48.188;9.964;2024-03-22T02:07:18;25.73;;;13.27;;
29246;SDS011;16272;48.188;9.964;2024-03-22T02:09:44;27.10;;;14.07;;
29246;SDS011;16272;48.188;9.964;2024-03-22T02:12:09;27.38;;;13.90;;
29246;SDS011;16272;48.188;9.964;2024-03-22T02:14:35;27.23;;;14.10;;
29246;SDS011;16272;48.188;9.964;2024-03-22T02:17:01;21.93;;;11.27;;
29246;SDS011;16272;48.188;9.964;2024-03-22T02:19:26;22.03;;;11.53;;
29246;SDS011;16272;48.188;9.964;2024-03-22T02:21:51;23.40;;;11.80;;
29246;SDS011;16272;48.188;9.964;2024-03-22T02:24:17;25.73;;;12.53;;
29246;SDS011;16272;48.188;9.964;2024-03-22T02:26:42;27.50;;;13.48;;
29246;SDS011;16272;48.188;9.964;2024-03-22T02:29:07;25.87;;;13.30;;
29246;SDS011;16272;48.188;9.964;2024-03-22T02:31:32;28.63;;;13.57;;
29246;SDS011;16272;48.188;9.964;2024-03-22T02:33:58;31.23;;;14.63;;
29246;SDS011;16272;48.188;9.964;2024-03-22T02:36:23;28.37;;;13.73;;
29246;SDS011;16272;48.188;9.964;2024-03-22T02:38:48;27.40;;;13.57;;
29246;SDS011;16272;48.188;9.964;2024-03-22T02:41:14;29.07;;;14.37;;
29246;SDS011;16272;48.188;9.964;2024-03-22T02:43:39;32.65;;;15.38;;
29246;SDS011;16272;48.188;9.964;2024-03-22T02:46:04;33.33;;;16.27;;
29246;SDS011;16272;48.188;9.964;2024-03-22T02:48:30;32.00;;;15.53;;
29246;SDS011;16272;48.188;9.964;2024-03-22T02:50:56;31.83;;;14.40;;
29246;SDS011;16272;48.188;9.964;2024-03-22T02:53:22;31.08;;;14.82;;
29246;SDS011;16272;48.188;9.964;2024-03-22T02:55:48;30.27;;;14.17;;
29246;SDS011;16272;48.188;9.964;2024-03-22T02:58:13;30.40;;;14.67;;
29246;SDS011;16272;48.188;9.964;2024-03-22T03:00:38;28.63;;;13.60;;
29246;SDS011;16272;48.188;9.964;2024-03-22T03:03:07;26.30;;;13.40;;
29246;SDS011;16272;48.188;9.964;2024-03-22T03:05:32;28.08;;;13.60;;
29246;SDS011;16272;48.188;9.964;2024-03-22T03:07:58;27.77;;;13.82;;
29246;SDS011;16272;48.188;9.964;2024-03-22T03:10:24;29.67;;;13.60;;
29246;SDS011;16272;48.188;9.964;2024-03-22T03:12:49;29.77;;;13.95;;
29246;SDS011;16272;48.188;9.964;2024-03-22T03:15:15;29.40;;;14.23;;
29246;SDS011;16272;48.188;9.964;2024-03-22T03:17:41;28.02;;;14.00;;
29246;SDS011;16272;48.188;9.964;2024-03-22T03:20:06;27.70;;;13.93;;
29246;SDS011;16272;48.188;9.964;2024-03-22T03:22:33;29.05;;;14.00;;
29246;SDS011;16272;48.188;9.964;2024-03-22T03:24:59;26.75;;;13.73;;
29246;SDS011;16272;48.188;9.964;2024-03-22T03:27:24;28.07;;;13.43;;
29246;SDS011;16272;48.188;9.964;2024-03-22T03:29:50;29.63;;;13.93;;
29246;SDS011;16272;48.188;9.964;2024-03-22T03:32:15;31.23;;;14.17;;
29246;SDS011;16272;48.188;9.964;2024-03-22T03:34:40;30.23;;;14.63;;
29246;SDS011;16272;48.188;9.964;2024-03-22T03:37:06;31.73;;;14.70;;
29246;SDS011;16272;48.188;9.964;2024-03-22T03:39:31;31.03;;;14.57;;
29246;SDS011;16272;48.188;9.964;2024-03-22T03:41:56;31.97;;;14.90;;
29246;SDS011;16272;48.188;9.964;2024-03-22T03:44:21;30.80;;;14.60;;
29246;SDS011;16272;48.188;9.964;2024-03-22T03:46:47;30.95;;;14.80;;
29246;SDS011;16272;48.188;9.964;2024-03-22T03:49:12;32.33;;;15.10;;
29246;SDS011;16272;48.188;9.964;2024-03-22T03:51:37;31.27;;;14.77;;
29246;SDS011;16272;48.188;9.964;2024-03-22T03:54:03;30.50;;;14.30;;
29246;SDS011;16272;48.188;9.964;2024-03-22T03:56:29;29.08;;;13.93;;
29246;SDS011;16272;48.188;9.964;2024-03-22T03:58:54;32.53;;;15.13;;
29246;SDS011;16272;48.188;9.964;2024-03-22T04:01:20;31.60;;;15.00;;
29246;SDS011;16272;48.188;9.964;2024-03-22T04:03:45;30.03;;;14.33;;
29246;SDS011;16272;48.188;9.964;2024-03-22T04:06:10;29.45;;;14.07;;
29246;SDS011;16272;48.188;9.964;2024-03-22T04:08:35;30.70;;;14.40;;
29246;SDS011;16272;48.188;9.964;2024-03-22T04:11:01;28.77;;;13.67;;
29246;SDS011;16272;48.188;9.964;2024-03-22T04:13:27;28.25;;;14.05;;
29246;SDS011;16272;48.188;9.964;2024-03-22T04:15:53;32.60;;;14.60;;
29246;SDS011;16272;48.188;9.964;2024-03-22T04:18:19;31.67;;;14.97;;
29246;SDS011;16272;48.188;9.964;2024-03-22T04:20:55;30.35;;;13.70;;
29246;SDS011;16272;48.188;9.964;2024-03-22T04:23:21;28.88;;;13.43;;
29246;SDS011;16272;48.188;9.964;2024-03-22T04:26:00;29.77;;;14.20;;
29246;SDS011;16272;48.188;9.964;2024-03-22T04:28:26;26.17;;;12.70;;
29246;SDS011;16272;48.188;9.964;2024-03-22T04:30:56;25.77;;;12.32;;
29246;SDS011;16272;48.188;9.964;2024-03-22T04:33:23;25.02;;;12.55;;
29246;SDS011;16272;48.188;9.964;2024-03-22T04:35:48;25.83;;;12.57;;
29246;SDS011;16272;48.188;9.964;2024-03-22T04:38:14;25.90;;;12.73;;
29246;SDS011;16272;48.188;9.964;2024-03-22T04:40:39;24.48;;;12.20;;
29246;SDS011;16272;48.188;9.964;2024-03-22T04:43:04;22.63;;;11.40;;
29246;SDS011;16272;48.188;9.964;2024-03-22T04:45:30;24.70;;;12.07;;
29246;SDS011;16272;48.188;9.964;2024-03-22T04:47:55;28.23;;;13.47;;
29246;SDS011;16272;48.188;9.964;2024-03-22T04:50:20;28.70;;;13.73;;
29246;SDS011;16272;48.188;9.964;2024-03-22T04:52:45;28.10;;;13.33;;
29246;SDS011;16272;48.188;9.964;2024-03-22T04:55:11;26.70;;;12.70;;
29246;SDS011;16272;48.188;9.964;2024-03-22T04:57:36;25.87;;;12.60;;
29246;SDS011;16272;48.188;9.964;2024-03-22T05:00:01;26.20;;;12.53;;
29246;SDS011;16272;48.188;9.964;2024-03-22T05:02:27;27.77;;;13.30;;
29246;SDS011;16272;48.188;9.964;2024-03-22T05:04:52;26.97;;;13.03;;
29246;SDS011;16272;48.188;9.964;2024-03-22T05:07:17;26.73;;;13.57;;
29246;SDS011;16272;48.188;9.964;2024-03-22T05:09:43;29.90;;;14.00;;
29246;SDS011;16272;48.188;9.964;2024-03-22T05:12:08;29.77;;;14.17;;
29246;SDS011;16272;48.188;9.964;2024-03-22T05:14:33;27.23;;;13.43;;
29246;SDS011;16272;48.188;9.964;2024-03-22T05:16:58;27.83;;;13.53;;
29246;SDS011;16272;48.188;9.964;2024-03-22T05:19:24;26.67;;;13.50;;
29246;SDS011;16272;48.188;9.964;2024-03-22T05:21:49;25.63;;;13.00;;
29246;SDS011;16272;48.188;9.964;2024-03-22T05:24:14;26.43;;;13.23;;
29246;SDS011;16272;48.188;9.964;2024-03-22T05:26:39;26.27;;;12.70;;
29246;SDS011;16272;48.188;9.964;2024-03-22T05:29:05;25.00;;;12.93;;
29246;SDS011;16272;48.188;9.964;2024-03-22T05:31:30;25.73;;;12.83;;
29246;SDS011;16272;48.188;9.964;2024-03-22T05:33:56;26.83;;;13.17;;
29246;SDS011;16272;48.188;9.964;2024-03-22T05:36:21;24.55;;;12.10;;
29246;SDS011;16272;48.188;9.964;2024-03-22T05:38:46;26.13;;;12.83;;
29246;SDS011;16272;48.188;9.964;2024-03-22T05:41:12;24.93;;;12.00;;
29246;SDS011;16272;48.188;9.964;2024-03-22T05:43:37;25.10;;;12.17;;
29246;SDS011;16272;48.188;9.964;2024-03-22T05:46:02;24.33;;;12.30;;
29246;SDS011;16272;48.188;9.964;2024-03-22T05:48:27;25.00;;;12.70;;
29246;SDS011;16272;48.188;9.964;2024-03-22T05:50:53;23.90;;;12.15;;
29246;SDS011;16272;48.188;9.964;2024-03-22T05:53:18;24.30;;;13.03;;
29246;SDS011;16272;48.188;9.964;2024-03-22T05:55:44;25.60;;;12.73;;
29246;SDS011;16272;48.188;9.964;2024-03-22T05:58:09;23.30;;;12.17;;
29246;SDS011;16272;48.188;9.964;2024-03-22T06:00:34;23.27;;;11.73;;
29246;SDS011;16272;48.188;9.964;2024-03-22T06:03:00;22.37;;;11.77;;
29246;SDS011;16272;48.188;9.964;2024-03-22T06:05:25;21.90;;;11.63;;
29246;SDS011;16272;48.188;9.964;2024-03-22T06:07:50;22.53;;;11.93;;
29246;SDS011;16272;48.188;9.964;2024-03-22T06:10:15;21.07;;;11.27;;
29246;SDS011;16272;48.188;9.964;2024-03-22T06:12:41;23.40;;;11.75;;
29246;SDS011;16272;48.188;9.964;2024-03-22T06:15:09;21.60;;;11.57;;
29246;SDS011;16272;48.188;9.964;2024-03-22T06:17:35;21.00;;;11.90;;
29246;SDS011;16272;48.188;9.964;2024-03-22T06:20:00;23.45;;;12.45;;
29246;SDS011;16272;48.188;9.964;2024-03-22T06:22:26;22.00;;;11.53;;
29246;SDS011;16272;48.188;9.964;2024-03-22T06:24:51;20.95;;;11.55;;
29246;SDS011;16272;48.188;9.964;2024-03-22T06:27:18;21.75;;;11.88;;
29246;SDS011;16272;48.188;9.964;2024-03-22T06:29:44;19.08;;;10.43;;
29246;SDS011;16272;48.188;9.964;2024-03-22T06:32:09;18.67;;;10.33;;
29246;SDS011;16272;48.188;9.964;2024-03-22T06:34:34;17.37;;;9.97;;
29246;SDS011;16272;48.188;9.964;2024-03-22T06:37:00;17.60;;;9.90;;
29246;SDS011;16272;48.188;9.964;2024-03-22T06:39:25;18.33;;;9.77;;
29246;SDS011;16272;48.188;9.964;2024-03-22T06:41:50;19.30;;;10.43;;
29246;SDS011;16272;48.188;9.964;2024-03-22T06:44:15;16.60;;;9.70;;
29246;SDS011;16272;48.188;9.964;2024-03-22T06:46:41;17.67;;;10.05;;
29246;SDS011;16272;48.188;9.964;2024-03-22T06:49:06;18.47;;;10.10;;
29246;SDS011;16272;48.188;9.964;2024-03-22T06:51:33;17.75;;;9.82;;
29246;SDS011;16272;48.188;9.964;2024-03-22T06:53:59;16.27;;;9.40;;
29246;SDS011;16272;48.188;9.964;2024-03-22T06:56:24;16.93;;;9.77;;
29246;SDS011;16272;48.188;9.964;2024-03-22T06:58:49;15.67;;;9.57;;
29246;SDS011;16272;48.188;9.964;2024-03-22T07:01:14;16.20;;;8.97;;
29246;SDS011;16272;48.188;9.964;2024-03-22T07:03:40;15.70;;;9.70;;
29246;SDS011;16272;48.188;9.964;2024-03-22T07:06:06;14.83;;;9.20;;
29246;SDS011;16272;48.188;9.964;2024-03-22T07:08:33;15.50;;;9.30;;
29246;SDS011;16272;48.188;9.964;2024-03-22T07:10:59;15.60;;;9.13;;
29246;SDS011;16272;48.188;9.964;2024-03-22T07:13:24;15.38;;;8.95;;
29246;SDS011;16272;48.188;9.964;2024-03-22T07:15:50;16.83;;;8.90;;
29246;SDS011;16272;48.188;9.964;2024-03-22T07:18:15;15.70;;;9.60;;
29246;SDS011;16272;48.188;9.964;2024-03-22T07:20:41;14.73;;;9.00;;
29246;SDS011;16272;48.188;9.964;2024-03-22T07:23:07;16.90;;;9.32;;
29246;SDS011;16272;48.188;9.964;2024-03-22T07:25:33;16.43;;;9.83;;
29246;SDS011;16272;48.188;9.964;2024-03-22T07:27:58;15.27;;;9.32;;
29246;SDS011;16272;48.188;9.964;2024-03-22T07:30:24;15.73;;;9.93;;
29246;SDS011;16272;48.188;9.964;2024-03-22T07:32:49;15.68;;;9.32;;
29246;SDS011;16272;48.188;9.964;2024-03-22T07:35:15;14.13;;;8.53;;
29246;SDS011;16272;48.188;9.964;2024-03-22T07:37:40;13.97;;;8.83;;
29246;SDS011;16272;48.188;9.964;2024-03-22T07:40:06;14.90;;;8.83;;
29246;SDS011;16272;48.188;9.964;2024-03-22T07:42:31;12.90;;;7.90;;
29246;SDS011;16272;48.188;9.964;2024-03-22T07:44:57;13.83;;;8.07;;
29246;SDS011;16272;48.188;9.964;2024-03-22T07:47:22;14.03;;;8.20;;
29246;SDS011;16272;48.188;9.964;2024-03-22T07:49:47;13.33;;;8.47;;
29246;SDS011;16272;48.188;9.964;2024-03-22T07:52:12;13.57;;;8.13;;
29246;SDS011;16272;48.188;9.964;2024-03-22T07:54:38;13.45;;;8.23;;
29246;SDS011;16272;48.188;9.964;2024-03-22T07:57:03;13.63;;;8.47;;
29246;SDS011;16272;48.188;9.964;2024-03-22T07:59:29;12.50;;;7.67;;
29246;SDS011;16272;48.188;9.964;2024-03-22T08:01:54;11.75;;;7.10;;
29246;SDS011;16272;48.188;9.964;2024-03-22T08:04:20;12.87;;;6.77;;
29246;SDS011;16272;48.188;9.964;2024-03-22T08:06:45;10.30;;;5.70;;
29246;SDS011;16272;48.188;9.964;2024-03-22T08:09:11;10.80;;;5.50;;
29246;SDS011;16272;48.188;9.964;2024-03-22T08:11:36;10.70;;;6.30;;
29246;SDS011;16272;48.188;9.964;2024-03-22T08:14:01;11.43;;;5.70;;
29246;SDS011;16272;48.188;9.964;2024-03-22T08:16:28;10.55;;;5.63;;
29246;SDS011;16272;48.188;9.964;2024-03-22T08:18:55;10.20;;;5.70;;
29246;SDS011;16272;48.188;9.964;2024-03-22T08:21:21;11.53;;;5.60;;
29246;SDS011;16272;48.188;9.964;2024-03-22T08:23:47;10.63;;;5.70;;
29246;SDS011;16272;48.188;9.964;2024-03-22T08:26:12;10.60;;;5.90;;
29246;SDS011;16272;48.188;9.964;2024-03-22T08:28:37;11.70;;;5.70;;
29246;SDS011;16272;48.188;9.964;2024-03-22T08:31:03;11.17;;;6.50;;
29246;SDS011;16272;48.188;9.964;2024-03-22T08:33:29;10.18;;;5.70;;
29246;SDS011;16272;48.188;9.964;2024-03-22T08:35:55;12.48;;;6.00;;
29246;SDS011;16272;48.188;9.964;2024-03-22T08:38:20;10.40;;;5.97;;
29246;SDS011;16272;48.188;9.964;2024-03-22T08:40:46;11.70;;;6.37;;
29246;SDS011;16272;48.188;9.964;2024-03-22T08:43:11;11.10;;;6.07;;
29246;SDS011;16272;48.188;9.964;2024-03-22T08:45:36;11.93;;;6.50;;
29246;SDS011;16272;48.188;9.964;2024-03-22T08:48:01;12.70;;;6.30;;
29246;SDS011;16272;48.188;9.964;2024-03-22T08:50:27;11.40;;;6.20;;
29246;SDS011;16272;48.188;9.964;2024-03-22T08:52:52;10.80;;;6.33;;
29246;SDS011;16272;48.188;9.964;2024-03-22T08:55:18;11.33;;;6.60;;
29246;SDS011;16272;48.188;9.964;2024-03-22T08:57:43;12.67;;;6.93;;
29246;SDS011;16272;48.188;9.964;2024-03-22T09:00:09;12.17;;;6.73;;
29246;SDS011;16272;48.188;9.964;2024-03-22T09:02:35;12.93;;;6.85;;
29246;SDS011;16272;48.188;9.964;2024-03-22T09:05:01;10.93;;;6.60;;
29246;SDS011;16272;48.188;9.964;2024-03-22T09:07:26;11.53;;;6.50;;
29246;SDS011;16272;48.188;9.964;2024-03-22T09:09:52;10.95;;;6.43;;
29246;SDS011;16272;48.188;9.964;2024-03-22T09:12:18;12.10;;;6.37;;
29246;SDS011;16272;48.188;9.964;2024-03-22T09:14:44;11.13;;;6.70;;
29246;SDS011;16272;48.188;9.964;2024-03-22T09:17:09;11.20;;;6.40;;
29246;SDS011;16272;48.188;9.964;2024-03-22T09:19:34;11.30;;;6.27;;
29246;SDS011;16272;48.188;9.964;2024-03-22T09:21:59;11.33;;;6.20;;
29246;SDS011;16272;48.188;9.964;2024-03-22T09:24:25;11.25;;;5.78;;
29246;SDS011;16272;48.188;9.964;2024-03-22T09:26:50;10.83;;;5.30;;
29246;SDS011;16272;48.188;9.964;2024-03-22T09:29:15;10.40;;;6.10;;
29246;SDS011;16272;48.188;9.964;2024-03-22T09:31:41;10.40;;;6.50;;
29246;SDS011;16272;48.188;9.964;2024-03-22T09:34:06;11.00;;;5.83;;
29246;SDS011;16272;48.188;9.964;2024-03-22T09:36:31;12.23;;;5.60;;
29246;SDS011;16272;48.188;9.964;2024-03-22T09:39:00;9.87;;;5.30;;
29246;SDS011;16272;48.188;9.964;2024-03-22T09:41:26;9.97;;;5.47;;
29246;SDS011;16272;48.188;9.964;2024-03-22T09:43:51;9.73;;;5.13;;
29246;SDS011;16272;48.188;9.964;2024-03-22T09:46:18;10.33;;;5.50;;
29246;SDS011;16272;48.188;9.964;2024-03-22T09:48:46;10.07;;;5.60;;
29246;SDS011;16272;48.188;9.964;2024-03-22T09:51:14;10.25;;;5.40;;
29246;SDS011;16272;48.188;9.964;2024-03-22T09:53:42;9.57;;;5.35;;
29246;SDS011;16272;48.188;9.964;2024-03-22T09:56:09;10.45;;;5.90;;
29246;SDS011;16272;48.188;9.964;2024-03-22T09:58:39;10.13;;;5.40;;
29246;SDS011;16272;48.188;9.964;2024-03-22T10:01:04;9.63;;;5.72;;
29246;SDS011;16272;48.188;9.964;2024-03-22T10:03:30;9.70;;;5.63;;
29246;SDS011;16272;48.188;9.964;2024-03-22T10:05:55;10.27;;;6.00;;
29246;SDS011;16272;48.188;9.964;2024-03-22T10:08:20;10.50;;;5.47;;
29246;SDS011;16272;48.188;9.964;2024-03-22T10:10:46;11.10;;;6.00;;
29246;SDS011;16272;48.188;9.964;2024-03-22T10:13:12;10.23;;;6.03;;
29246;SDS011;16272;48.188;9.964;2024-03-22T10:15:37;9.83;;;5.90;;
29246;SDS011;16272;48.188;9.964;2024-03-22T10:18:03;10.00;;;5.80;;
29246;SDS011;16272;48.188;9.964;2024-03-22T10:20:29;10.17;;;5.30;;
29246;SDS011;16272;48.188;9.964;2024-03-22T10:22:55;9.68;;;5.78;;
29246;SDS011;16272;48.188;9.964;2024-03-22T10:25:23;9.60;;;5.40;;
29246;SDS011;16272;48.188;9.964;2024-03-22T10:27:48;10.30;;;5.63;;
29246;SDS011;16272;48.188;9.964;2024-03-22T10:30:15;9.73;;;5.90;;
29246;SDS011;16272;48.188;9.964;2024-03-22T10:32:42;9.85;;;5.20;;
29246;SDS011;16272;48.188;9.964;2024-03-22T10:35:07;10.13;;;5.63;;
29246;SDS011;16272;48.188;9.964;2024-03-22T10:37:36;10.60;;;5.50;;
29246;SDS011;16272;48.188;9.964;2024-03-22T10:40:02;10.38;;;5.60;;
29246;SDS011;16272;48.188;9.964;2024-03-22T10:42:34;9.25;;;5.28;;
29246;SDS011;16272;48.188;9.964;2024-03-22T10:45:02;9.30;;;4.82;;
29246;SDS011;16272;48.188;9.964;2024-03-22T10:47:29;9.15;;;4.57;;
29246;SDS011;16272;48.188;9.964;2024-03-22T10:49:57;9.48;;;5.10;;
29246;SDS011;16272;48.188;9.964;2024-03-22T10:52:36;9.02;;;5.13;;
29246;SDS011;16272;48.188;9.964;2024-03-22T10:55:24;9.20;;;4.72;;
29246;SDS011;16272;48.188;9.964;2024-03-22T10:58:07;8.70;;;4.50;;
29246;SDS011;16272;48.188;9.964;2024-03-22T11:00:41;9.07;;;4.47;;
29246;SDS011;16272;48.188;9.964;2024-03-22T11:03:08;8.73;;;4.70;;
29246;SDS011;16272;48.188;9.964;2024-03-22T11:05:33;8.88;;;4.80;;
29246;SDS011;16272;48.188;9.964;2024-03-22T11:08:07;8.67;;;4.57;;
29246;SDS011;16272;48.188;9.964;2024-03-22T11:10:33;8.82;;;4.35;;
29246;SDS011;16272;48.188;9.964;2024-03-22T11:13:05;8.90;;;4.32;;
29246;SDS011;16272;48.188;9.964;2024-03-22T11:15:32;8.27;;;4.10;;
29246;SDS011;16272;48.188;9.964;2024-03-22T11:17:58;8.43;;;4.35;;
29246;SDS011;16272;48.188;9.964;2024-03-22T11:20:25;8.30;;;4.67;;
29246;SDS011;16272;48.188;9.964;2024-03-22T11:22:53;8.50;;;4.20;;
29246;SDS011;16272;48.188;9.964;2024-03-22T11:25:19;8.80;;;4.50;;
29246;SDS011;16272;48.188;9.964;2024-03-22T11:27:48;8.40;;;4.27;;
29246;SDS011;16272;48.188;9.964;2024-03-22T11:30:14;7.80;;;3.97;;
29246;SDS011;16272;48.188;9.964;2024-03-22T11:32:40;7.40;;;3.90;;
29246;SDS011;16272;48.188;9.964;2024-03-22T11:35:10;8.85;;;3.60;;
29246;SDS011;16272;48.188;9.964;2024-03-22T11:37:36;7.47;;;3.50;;
29246;SDS011;16272;48.188;9.964;2024-03-22T11:40:04;8.10;;;3.20;;
29246;SDS011;16272;48.188;9.964;2024-03-22T11:42:32;7.10;;;3.10;;
29246;SDS011;16272;48.188;9.964;2024-03-22T11:44:58;8.27;;;3.83;;
29246;SDS011;16272;48.188;9.964;2024-03-22T11:47:24;7.65;;;4.00;;
29246;SDS011;16272;48.188;9.964;2024-03-22T11:49:50;7.80;;;3.83;;
29246;SDS011;16272;48.188;9.964;2024-03-22T11:52:15;7.37;;;3.90;;
29246;SDS011;16272;48.188;9.964;2024-03-22T11:54:40;8.00;;;4.20;;
29246;SDS011;16272;48.188;9.964;2024-03-22T11:57:06;7.70;;;3.90;;
29246;SDS011;16272;48.188;9.964;2024-03-22T11:59:33;8.40;;;3.50;;
29246;SDS011;16272;48.188;9.964;2024-03-22T12:01:59;8.23;;;3.80;;
29246;SDS011;16272;48.188;9.964;2024-03-22T12:04:24;8.50;;;3.42;;
29246;SDS011;16272;48.188;9.964;2024-03-22T12:06:50;8.00;;;3.50;;
29246;SDS011;16272;48.188;9.964;2024-03-22T12:09:15;7.40;;;3.63;;
29246;SDS011;16272;48.188;9.964;2024-03-22T12:11:40;7.03;;;3.07;;
29246;SDS011;16272;48.188;9.964;2024-03-22T12:14:06;7.23;;;3.10;;
29246;SDS011;16272;48.188;9.964;2024-03-22T12:16:31;8.05;;;3.03;;
29246;SDS011;16272;48.188;9.964;2024-03-22T12:18:57;7.53;;;3.37;;
29246;SDS011;16272;48.188;9.964;2024-03-22T12:21:22;5.80;;;2.50;;
29246;SDS011;16272;48.188;9.964;2024-03-22T12:23:48;6.43;;;2.80;;
29246;SDS011;16272;48.188;9.964;2024-03-22T12:26:13;6.40;;;2.60;;
29246;SDS011;16272;48.188;9.964;2024-03-22T12:28:38;6.63;;;2.58;;
29246;SDS011;16272;48.188;9.964;2024-03-22T12:31:04;6.97;;;2.37;;
29246;SDS011;16272;48.188;9.964;2024-03-22T12:33:29;6.40;;;2.53;;
29246;SDS011;16272;48.188;9.964;2024-03-22T12:35:55;6.50;;;2.50;;
29246;SDS011;16272;48.188;9.964;2024-03-22T12:38:20;7.13;;;2.83;;
29246;SDS011;16272;48.188;9.964;2024-03-22T12:40:45;7.03;;;2.73;;
29246;SDS011;16272;48.188;9.964;2024-03-22T12:43:11;6.33;;;2.60;;
29246;SDS011;16272;48.188;9.964;2024-03-22T12:45:36;6.30;;;2.70;;
29246;SDS011;16272;48.188;9.964;2024-03-22T12:48:02;6.10;;;2.42;;
29246;SDS011;16272;48.188;9.964;2024-03-22T12:50:27;6.13;;;2.07;;
29246;SDS011;16272;48.188;9.964;2024-03-22T12:52:53;6.10;;;2.40;;
29246;SDS011;16272;48.188;9.964;2024-03-22T12:55:18;6.63;;;2.63;;
29246;SDS011;16272;48.188;9.964;2024-03-22T12:57:43;7.03;;;2.20;;
29246;SDS011;16272;48.188;9.964;2024-03-22T13:00:09;6.03;;;2.33;;
29246;SDS011;16272;48.188;9.964;2024-03-22T13:02:39;6.57;;;2.30;;
29246;SDS011;16272;48.188;9.964;2024-03-22T13:05:04;6.65;;;2.70;;
29246;SDS011;16272;48.188;9.964;2024-03-22T13:07:30;6.70;;;2.60;;
29246;SDS011;16272;48.188;9.964;2024-03-22T13:09:55;6.33;;;2.43;;
29246;SDS011;16272;48.188;9.964;2024-03-22T13:12:21;6.50;;;2.60;;
29246;SDS011;16272;48.188;9.964;2024-03-22T13:14:46;6.30;;;2.37;;
29246;SDS011;16272;48.188;9.964;2024-03-22T13:17:12;6.35;;;2.28;;
29246;SDS011;16272;48.188;9.964;2024-03-22T13:19:38;6.03;;;2.40;;
29246;SDS011;16272;48.188;9.964;2024-03-22T13:22:03;6.60;;;2.30;;
29246;SDS011;16272;48.188;9.964;2024-03-22T13:24:28;5.60;;;2.10;;
29246;SDS011;16272;48.188;9.964;2024-03-22T13:26:53;5.80;;;2.10;;
29246;SDS011;16272;48.188;9.964;2024-03-22T13:29:19;6.50;;;2.67;;
29246;SDS011;16272;48.188;9.964;2024-03-22T13:31:44;5.87;;;2.30;;
29246;SDS011;16272;48.188;9.964;2024-03-22T13:34:10;6.65;;;2.47;;
29246;SDS011;16272;48.188;9.964;2024-03-22T13:36:35;6.40;;;2.70;;
29246;SDS011;16272;48.188;9.964;2024-03-22T13:39:03;6.40;;;2.20;;
29246;SDS011;16272;48.188;9.964;2024-03-22T13:41:29;6.32;;;2.30;;
29246;SDS011;16272;48.188;9.964;2024-03-22T13:43:55;7.00;;;2.58;;
29246;SDS011;16272;48.188;9.964;2024-03-22T13:46:20;5.63;;;2.13;;
29246;SDS011;16272;48.188;9.964;2024-03-22T13:48:45;6.07;;;2.27;;
29246;SDS011;16272;48.188;9.964;2024-03-22T13:51:11;5.70;;;1.80;;
29246;SDS011;16272;48.188;9.964;2024-03-22T13:53:36;7.17;;;2.30;;
29246;SDS011;16272;48.188;9.964;2024-03-22T13:56:02;6.07;;;2.13;;
29246;SDS011;16272;48.188;9.964;2024-03-22T13:58:27;5.83;;;2.20;;
29246;SDS011;16272;48.188;9.964;2024-03-22T14:00:53;6.27;;;2.40;;
29246;SDS011;16272;48.188;9.964;2024-03-22T14:03:18;6.57;;;1.90;;
29246;SDS011;16272;48.188;9.964;2024-03-22T14:05:44;5.80;;;2.42;;
29246;SDS011;16272;48.188;9.964;2024-03-22T14:08:09;6.33;;;2.30;;
29246;SDS011;16272;48.188;9.964;2024-03-22T14:10:34;6.33;;;2.10;;
29246;SDS011;16272;48.188;9.964;2024-03-22T14:13:00;6.07;;;2.27;;
29246;SDS011;16272;48.188;9.964;2024-03-22T14:15:26;7.00;;;2.27;;
29246;SDS011;16272;48.188;9.964;2024-03-22T14:17:56;5.63;;;2.10;;
29246;SDS011;16272;48.188;9.964;2024-03-22T14:20:21;6.00;;;2.20;;
29246;SDS011;16272;48.188;9.964;2024-03-22T14:22:47;6.85;;;2.22;;
29246;SDS011;16272;48.188;9.964;2024-03-22T14:25:12;6.60;;;2.37;;